Time;durP1;ratioP1;P1;durP2;ratioP2;P2;SDS_P1;SDS_P2;PMS_P1;PMS_P2;Temp;Humidity;BMP_temperature;BMP_pressure;BME280_temperature;BME280_humidity;BME280_pressure;Samples;Min_cycle;Max_cycle;Signal;HPM_P1;HPM_P2
2021/03/31 00:00:41;;;;;;;17.42;11.80;;;11.80;76.60;;;;;;2018515;29;20076;-77
2021/03/31 00:01:41;;;;;;;19.35;11.70;;;11.80;77.30;;;;;;2033548;29;20083;-77
2021/03/31 00:02:42;;;;;;;18.48;11.68;;;11.80;77.30;;;;;;2031967;29;20032;-77
2021/03/31 00:03:42;;;;;;;18.83;11.40;;;11.80;78.20;;;;;;2021222;29;20040;-77
2021/03/31 00:04:43;;;;;;;19.80;11.68;;;11.80;77.70;;;;;;2025602;29;20036;-77
2021/03/31 00:05:44;;;;;;;23.73;12.00;;;11.80;78.40;;;;;;2024491;29;20064;-77
2021/03/31 00:06:44;;;;;;;19.13;12.02;;;11.70;78.10;;;;;;2023571;29;20040;-77
2021/03/31 00:07:45;;;;;;;19.17;11.82;;;11.70;78.60;;;;;;2036269;29;20031;-77
2021/03/31 00:08:46;;;;;;;15.73;11.73;;;11.70;78.90;;;;;;2026231;29;20064;-77
2021/03/31 00:09:46;;;;;;;17.13;11.45;;;11.70;78.00;;;;;;2026787;29;20031;-77
2021/03/31 00:10:52;;;;;;;18.60;12.52;;;11.70;78.70;;;;;;2032094;29;20365;-77
2021/03/31 00:11:53;;;;;;;19.48;12.30;;;11.70;80.80;;;;;;2023342;29;20041;-77
2021/03/31 00:12:54;;;;;;;15.35;10.98;;;11.70;80.60;;;;;;2028474;29;20033;-77
2021/03/31 00:13:54;;;;;;;16.95;11.65;;;11.70;78.90;;;;;;2018473;29;20029;-77
2021/03/31 00:14:55;;;;;;;16.90;11.52;;;11.70;78.60;;;;;;2031289;29;20028;-77
2021/03/31 00:15:56;;;;;;;19.55;12.30;;;11.70;79.80;;;;;;2037904;29;20491;-77
2021/03/31 00:16:56;;;;;;;19.75;11.73;;;11.60;80.30;;;;;;2032409;29;20036;-77
2021/03/31 00:17:57;;;;;;;15.20;10.52;;;11.60;79.50;;;;;;2031130;29;20036;-77
2021/03/31 00:18:57;;;;;;;18.27;10.70;;;11.60;79.60;;;;;;2030675;29;20046;-77
2021/03/31 00:19:58;;;;;;;15.40;10.52;;;11.60;79.60;;;;;;2023843;29;20048;-77
2021/03/31 00:21:00;;;;;;;16.50;11.63;;;11.60;79.50;;;;;;2024701;29;20024;-77
2021/03/31 00:22:02;;;;;;;20.98;12.20;;;11.50;80.70;;;;;;2028818;29;20171;-77
2021/03/31 00:23:07;;;;;;;17.88;12.27;;;11.50;80.80;;;;;;2032177;29;20100;-77
2021/03/31 00:24:08;;;;;;;19.30;12.48;;;11.50;82.30;;;;;;2035999;29;20139;-77
2021/03/31 00:25:11;;;;;;;17.52;11.32;;;11.50;82.00;;;;;;2025565;29;20024;-77
2021/03/31 00:26:11;;;;;;;18.15;11.25;;;11.40;81.20;;;;;;2029997;29;20480;-77
2021/03/31 00:27:12;;;;;;;14.00;10.13;;;11.40;81.00;;;;;;2019514;29;20024;-77
2021/03/31 00:28:14;;;;;;;16.98;11.77;;;11.40;80.30;;;;;;2022588;29;20770;-77
2021/03/31 00:29:14;;;;;;;16.17;10.93;;;11.40;82.00;;;;;;2026102;29;20103;-77
2021/03/31 00:30:17;;;;;;;18.88;10.85;;;11.40;82.60;;;;;;2026923;29;20076;-77
2021/03/31 00:31:17;;;;;;;18.48;11.25;;;11.30;81.90;;;;;;2028429;29;20031;-77
2021/03/31 00:32:18;;;;;;;16.65;11.15;;;11.30;82.00;;;;;;2025624;29;20037;-77
2021/03/31 00:33:19;;;;;;;16.65;11.43;;;11.40;81.80;;;;;;2021696;29;20052;-77
2021/03/31 00:34:20;;;;;;;15.80;10.98;;;11.30;82.80;;;;;;2021259;29;20047;-77
2021/03/31 00:35:20;;;;;;;15.70;10.15;;;11.30;81.30;;;;;;2035403;29;20483;-77
2021/03/31 00:36:21;;;;;;;15.32;10.30;;;11.30;81.10;;;;;;2034723;29;20028;-77
2021/03/31 00:37:21;;;;;;;14.40;10.13;;;11.30;80.30;;;;;;2024798;29;20828;-77
2021/03/31 00:38:22;;;;;;;17.25;11.02;;;11.30;80.40;;;;;;2026087;29;20051;-77
2021/03/31 00:39:22;;;;;;;14.88;9.65;;;11.30;81.30;;;;;;2023801;29;20060;-77
2021/03/31 00:40:27;;;;;;;17.55;11.07;;;11.20;81.80;;;;;;2030949;29;20028;-77
2021/03/31 00:41:27;;;;;;;14.27;10.13;;;11.20;83.80;;;;;;2030419;29;20080;-77
2021/03/31 00:42:28;;;;;;;17.75;10.63;;;11.20;81.70;;;;;;2022240;29;20043;-77
2021/03/31 00:43:28;;;;;;;16.67;11.25;;;11.20;81.40;;;;;;2024269;29;20165;-77
2021/03/31 00:44:29;;;;;;;16.67;9.73;;;11.20;82.60;;;;;;2034457;29;20490;-77
2021/03/31 00:45:29;;;;;;;20.92;10.93;;;11.20;82.20;;;;;;2024895;29;20032;-77
2021/03/31 00:46:30;;;;;;;15.60;10.80;;;11.10;82.30;;;;;;2029474;29;20389;-77
2021/03/31 00:47:31;;;;;;;12.80;9.57;;;11.10;84.00;;;;;;2023395;29;20665;-77
2021/03/31 00:48:31;;;;;;;14.50;10.38;;;11.10;83.10;;;;;;2030097;29;20413;-77
2021/03/31 00:49:33;;;;;;;17.58;11.15;;;11.10;83.70;;;;;;2029656;29;20062;-77
2021/03/31 00:50:34;;;;;;;14.98;9.63;;;11.10;84.30;;;;;;2030542;29;20056;-77
2021/03/31 00:51:34;;;;;;;14.45;9.55;;;11.10;84.20;;;;;;2030517;29;20080;-77
2021/03/31 00:52:36;;;;;;;14.98;9.80;;;11.00;83.30;;;;;;2027377;29;20120;-77
2021/03/31 00:53:40;;;;;;;14.07;9.75;;;11.00;82.70;;;;;;2022429;29;20107;-77
2021/03/31 00:54:41;;;;;;;15.93;10.02;;;11.00;84.10;;;;;;2029546;29;20084;-77
2021/03/31 00:55:42;;;;;;;15.70;10.05;;;11.00;83.80;;;;;;2030588;29;20148;-77
2021/03/31 00:56:42;;;;;;;14.88;10.02;;;11.00;83.40;;;;;;2030102;29;20103;-77
2021/03/31 00:57:43;;;;;;;16.40;9.02;;;11.00;83.10;;;;;;2027065;29;20465;-77
2021/03/31 00:58:44;;;;;;;16.38;9.63;;;11.00;82.20;;;;;;2024375;29;20036;-77
2021/03/31 00:59:45;;;;;;;15.93;9.07;;;10.90;83.90;;;;;;2024614;29;20029;-77
2021/03/31 01:00:46;;;;;;;14.05;10.23;;;10.90;84.80;;;;;;2023572;29;20059;-77
2021/03/31 01:01:47;;;;;;;16.33;9.43;;;10.90;84.20;;;;;;2034763;29;20028;-77
2021/03/31 01:02:48;;;;;;;12.70;9.50;;;10.90;84.60;;;;;;2026507;29;20056;-77
2021/03/31 01:03:48;;;;;;;14.20;9.98;;;10.90;85.20;;;;;;2028359;29;20025;-77
2021/03/31 01:04:49;;;;;;;18.75;9.38;;;10.80;85.20;;;;;;2033339;29;20081;-77
2021/03/31 01:05:50;;;;;;;17.35;9.60;;;10.80;85.30;;;;;;2024282;29;20025;-77
2021/03/31 01:06:50;;;;;;;13.18;9.35;;;10.80;86.40;;;;;;2024427;29;20037;-77
2021/03/31 01:07:52;;;;;;;11.00;8.55;;;10.80;85.00;;;;;;2030939;29;20036;-77
2021/03/31 01:08:52;;;;;;;12.63;8.50;;;10.80;85.90;;;;;;2018802;29;20053;-77
2021/03/31 01:09:55;;;;;;;14.43;8.70;;;10.80;85.50;;;;;;2024721;29;20017;-77
2021/03/31 01:10:57;;;;;;;12.73;9.23;;;10.70;87.10;;;;;;2030803;29;20028;-77
2021/03/31 01:12:14;;;;;;;11.90;8.52;;;10.80;87.30;;;;;;2025130;29;20093;-77
2021/03/31 01:13:35;;;;;;;11.38;6.90;;;10.70;89.80;;;;;;2023126;29;20100;-77
2021/03/31 01:15:15;;;;;;;15.73;8.32;;;10.70;81.60;;;;;;2028245;29;20032;-77
2021/03/31 01:16:33;;;;;;;14.52;8.75;;;10.70;88.60;;;;;;1996946;29;20116;-77
2021/03/31 01:17:48;;;;;;;11.23;7.25;;;10.60;87.80;;;;;;2024331;29;20513;-77
2021/03/31 01:19:23;;;;;;;13.00;8.27;;;10.60;88.10;;;;;;2021894;29;20076;-77
2021/03/31 01:20:52;;;;;;;11.30;8.15;;;10.50;90.00;;;;;;2026066;29;20107;-77
2021/03/31 01:22:31;;;;;;;11.88;8.05;;;10.50;90.50;;;;;;2024275;29;20025;-77
2021/03/31 01:24:04;;;;;;;10.57;7.10;;;10.50;90.50;;;;;;2020489;29;20109;-77
2021/03/31 01:25:31;;;;;;;10.25;7.60;;;10.50;90.30;;;;;;2030085;29;20806;-77
2021/03/31 01:26:46;;;;;;;9.15;6.80;;;10.40;90.50;;;;;;2027964;29;20048;-77
2021/03/31 01:28:27;;;;;;;11.32;7.57;;;10.40;89.00;;;;;;2023320;29;20199;-77
2021/03/31 01:29:48;;;;;;;11.27;7.05;;;10.40;90.00;;;;;;2023196;29;20485;-77
2021/03/31 01:31:23;;;;;;;12.80;7.30;;;10.40;87.70;;;;;;2020309;29;20104;-77
2021/03/31 01:32:50;;;;;;;10.93;7.07;;;10.40;89.70;;;;;;2033755;29;20038;-77
2021/03/31 01:34:24;;;;;;;12.75;7.82;;;10.30;90.40;;;;;;2029794;29;20024;-77
2021/03/31 01:35:26;;;;;;;9.77;7.38;;;10.30;90.00;;;;;;2026718;29;20438;-77
2021/03/31 01:36:29;;;;;;;14.02;7.47;;;10.30;87.90;;;;;;2035310;29;20024;-77
2021/03/31 01:37:37;;;;;;;9.75;7.25;;;10.40;89.10;;;;;;2034284;29;20479;-77
2021/03/31 01:38:43;;;;;;;11.75;7.18;;;10.40;90.80;;;;;;2025858;29;20029;-77
2021/03/31 01:39:46;;;;;;;11.70;6.97;;;10.40;90.60;;;;;;2024104;29;20033;-77
2021/03/31 01:40:49;;;;;;;8.18;6.93;;;10.40;90.10;;;;;;2025172;29;20024;-77
2021/03/31 01:41:52;;;;;;;9.50;6.70;;;10.40;90.30;;;;;;2021065;29;20037;-77
2021/03/31 01:43:10;;;;;;;8.75;6.85;;;10.40;89.80;;;;;;2020478;29;20058;-77
2021/03/31 01:44:14;;;;;;;13.48;7.35;;;10.40;91.20;;;;;;2028718;29;20028;-77
2021/03/31 01:45:17;;;;;;;11.15;6.80;;;10.40;90.00;;;;;;2023702;29;20036;-77
2021/03/31 01:46:30;;;;;;;10.65;7.30;;;10.40;90.00;;;;;;2029336;29;20028;-77
2021/03/31 01:47:35;;;;;;;16.02;6.90;;;10.40;91.30;;;;;;2023753;29;20426;-77
2021/03/31 01:48:36;;;;;;;14.80;7.10;;;10.30;90.70;;;;;;2028375;29;20055;-77
2021/03/31 01:49:38;;;;;;;9.85;6.97;;;10.40;90.10;;;;;;2039309;29;20082;-77
2021/03/31 01:50:39;;;;;;;13.10;6.70;;;10.40;90.80;;;;;;2029574;29;20097;-77
2021/03/31 01:51:41;;;;;;;9.20;6.70;;;10.40;91.40;;;;;;2031374;29;20039;-77
2021/03/31 01:52:43;;;;;;;10.10;7.18;;;10.40;90.90;;;;;;2032734;29;20030;-77
2021/03/31 01:53:44;;;;;;;8.02;6.43;;;10.40;90.60;;;;;;2037235;29;20036;-77
2021/03/31 01:54:45;;;;;;;10.70;7.20;;;10.40;90.90;;;;;;2035536;29;20032;-77
2021/03/31 01:55:51;;;;;;;9.75;6.78;;;10.40;91.00;;;;;;2032247;29;20039;-77
2021/03/31 01:56:54;;;;;;;9.73;6.75;;;10.40;91.20;;;;;;2027151;29;20473;-77
2021/03/31 01:57:56;;;;;;;9.05;6.85;;;10.40;90.80;;;;;;2033642;29;20051;-77
2021/03/31 01:58:58;;;;;;;9.43;6.75;;;10.40;90.70;;;;;;2026955;29;20350;-77
2021/03/31 01:59:59;;;;;;;10.15;6.78;;;10.40;90.90;;;;;;2031994;29;20052;-77
2021/03/31 02:01:00;;;;;;;8.15;6.65;;;10.40;91.10;;;;;;2027785;29;20099;-77
2021/03/31 02:02:02;;;;;;;10.48;7.10;;;10.40;91.10;;;;;;2030710;29;20146;-77
2021/03/31 02:03:02;;;;;;;8.43;6.43;;;10.40;91.30;;;;;;2028866;29;20021;-77
2021/03/31 02:04:05;;;;;;;11.00;7.20;;;10.40;90.60;;;;;;2019635;29;20028;-77
2021/03/31 02:05:10;;;;;;;14.57;7.10;;;10.30;91.10;;;;;;2021766;29;20025;-77
2021/03/31 02:06:12;;;;;;;10.50;6.80;;;10.40;90.20;;;;;;2033961;29;20027;-77
2021/03/31 02:07:13;;;;;;;12.32;7.65;;;10.30;87.90;;;;;;2035600;29;20028;-77
2021/03/31 02:08:14;;;;;;;7.60;6.55;;;10.30;88.70;;;;;;2025981;29;20035;-77
2021/03/31 02:09:16;;;;;;;11.98;7.32;;;10.30;90.00;;;;;;2029935;29;20387;-77
2021/03/31 02:10:19;;;;;;;9.40;6.57;;;10.40;86.20;;;;;;2031187;29;20111;-77
2021/03/31 02:11:20;;;;;;;9.23;6.85;;;10.40;87.10;;;;;;2038171;29;20027;-77
2021/03/31 02:12:24;;;;;;;8.90;7.30;;;10.40;87.10;;;;;;2028227;29;20067;-77
2021/03/31 02:13:25;;;;;;;12.65;7.63;;;10.40;87.30;;;;;;2026537;29;20028;-77
2021/03/31 02:14:27;;;;;;;9.95;6.75;;;10.40;85.90;;;;;;2025818;29;20089;-77
2021/03/31 02:15:30;;;;;;;12.93;7.00;;;10.40;86.20;;;;;;2029260;29;20024;-77
2021/03/31 02:16:33;;;;;;;13.82;7.68;;;10.40;84.90;;;;;;2025777;29;20029;-77
2021/03/31 02:17:36;;;;;;;10.70;6.93;;;10.40;85.80;;;;;;2028654;29;20476;-77
2021/03/31 02:18:37;;;;;;;10.23;7.03;;;10.40;85.60;;;;;;2032681;29;20029;-77
2021/03/31 02:19:39;;;;;;;12.27;7.18;;;10.40;83.90;;;;;;2026809;29;20817;-77
2021/03/31 02:20:40;;;;;;;12.73;6.70;;;10.40;84.80;;;;;;2032494;29;20036;-77
2021/03/31 02:21:42;;;;;;;10.68;6.70;;;10.40;85.10;;;;;;2021298;29;20116;-79
2021/03/31 02:22:44;;;;;;;13.98;6.78;;;10.40;83.90;;;;;;2026906;29;20028;-77
2021/03/31 02:23:46;;;;;;;9.00;6.68;;;10.40;82.50;;;;;;2018073;29;20482;-77
2021/03/31 02:24:49;;;;;;;9.90;7.05;;;10.40;84.50;;;;;;2027459;29;20111;-77
2021/03/31 02:25:50;;;;;;;9.82;7.00;;;10.50;84.30;;;;;;2040826;29;20036;-77
2021/03/31 02:26:51;;;;;;;9.65;6.55;;;10.50;84.60;;;;;;2033072;29;20028;-77
2021/03/31 02:27:51;;;;;;;9.45;6.43;;;10.40;83.10;;;;;;2026038;29;20094;-77
2021/03/31 02:28:53;;;;;;;10.63;6.32;;;10.50;83.30;;;;;;2029983;29;20457;-77
2021/03/31 02:29:54;;;;;;;11.48;7.28;;;10.50;84.00;;;;;;2026691;29;20028;-77
2021/03/31 02:30:54;;;;;;;10.32;7.20;;;10.40;83.50;;;;;;2029625;29;20096;-77
2021/03/31 02:31:58;;;;;;;8.55;6.88;;;10.50;83.80;;;;;;2034277;29;20475;-77
2021/03/31 02:33:03;;;;;;;9.85;6.68;;;10.40;83.40;;;;;;2035892;29;20036;-77
2021/03/31 02:34:05;;;;;;;9.32;6.82;;;10.50;83.70;;;;;;2039353;29;20024;-77
2021/03/31 02:35:07;;;;;;;10.05;6.70;;;10.50;83.70;;;;;;2035338;29;20032;-77
2021/03/31 02:36:07;;;;;;;12.98;6.88;;;10.50;83.20;;;;;;2025661;29;20137;-77
2021/03/31 02:37:08;;;;;;;10.05;6.53;;;10.50;83.90;;;;;;2034736;29;20035;-77
2021/03/31 02:38:15;;;;;;;9.20;6.35;;;10.50;82.40;;;;;;2033612;29;20128;-78
2021/03/31 02:39:19;;;;;;;12.10;6.95;;;10.50;82.60;;;;;;2026775;29;20166;-77
2021/03/31 02:40:22;;;;;;;13.77;6.95;;;10.40;83.90;;;;;;2027492;29;20028;-77
2021/03/31 02:41:23;;;;;;;11.35;7.18;;;10.50;84.70;;;;;;2029560;29;20472;-77
2021/03/31 02:42:25;;;;;;;8.73;6.70;;;10.50;84.30;;;;;;2024691;29;20053;-77
2021/03/31 02:43:27;;;;;;;8.85;6.40;;;10.50;84.60;;;;;;2023954;29;20043;-77
2021/03/31 02:44:29;;;;;;;14.93;7.18;;;10.50;84.30;;;;;;2029966;29;20103;-77
2021/03/31 02:45:30;;;;;;;11.15;6.93;;;10.50;83.70;;;;;;2029945;29;20032;-77
2021/03/31 02:46:34;;;;;;;9.45;6.65;;;10.40;84.60;;;;;;2031668;29;20396;-77
2021/03/31 02:47:38;;;;;;;9.63;6.35;;;10.50;85.00;;;;;;2025306;29;20405;-77
2021/03/31 02:48:41;;;;;;;11.10;7.35;;;10.50;85.10;;;;;;2027892;29;20024;-77
2021/03/31 02:49:46;;;;;;;12.85;6.78;;;10.50;84.50;;;;;;2024984;29;20504;-77
2021/03/31 02:50:47;;;;;;;10.25;6.28;;;10.50;85.50;;;;;;2030361;29;20029;-77
2021/03/31 02:51:49;;;;;;;9.43;6.82;;;10.50;85.10;;;;;;2028356;29;20426;-77
2021/03/31 02:52:50;;;;;;;10.65;7.60;;;10.40;84.80;;;;;;2033188;29;20051;-77
2021/03/31 02:53:51;;;;;;;10.70;6.85;;;10.40;85.70;;;;;;2026435;29;20024;-77
2021/03/31 02:54:53;;;;;;;11.85;6.50;;;10.40;86.00;;;;;;2028946;29;20029;-77
2021/03/31 02:55:55;;;;;;;11.20;7.30;;;10.40;86.00;;;;;;2026729;29;20376;-77
2021/03/31 02:56:56;;;;;;;8.98;6.93;;;10.40;87.10;;;;;;2032063;29;20381;-77
2021/03/31 02:57:58;;;;;;;10.40;6.28;;;10.40;86.90;;;;;;2032032;29;20032;-77
2021/03/31 02:59:01;;;;;;;10.25;6.78;;;10.40;86.80;;;;;;2027891;29;20079;-77
2021/03/31 03:00:05;;;;;;;11.80;7.18;;;10.40;86.90;;;;;;2034198;29;20551;-77
2021/03/31 03:01:07;;;;;;;12.88;7.03;;;10.40;87.50;;;;;;2028644;29;20118;-77
2021/03/31 03:02:09;;;;;;;7.60;5.70;;;10.40;87.50;;;;;;2027453;29;20613;-77
2021/03/31 03:03:10;;;;;;;10.00;7.30;;;10.30;87.20;;;;;;2023168;29;20024;-77
2021/03/31 03:04:11;;;;;;;10.23;7.15;;;10.30;86.20;;;;;;2028394;29;20099;-77
2021/03/31 03:05:15;;;;;;;10.10;5.97;;;10.30;87.30;;;;;;2024162;29;20036;-77
2021/03/31 03:06:16;;;;;;;9.93;6.90;;;10.30;87.80;;;;;;2024976;29;20386;-77
2021/03/31 03:07:17;;;;;;;12.18;7.15;;;10.30;87.10;;;;;;2024600;29;20076;-77
2021/03/31 03:08:18;;;;;;;9.90;7.20;;;10.30;87.00;;;;;;2028354;29;20036;-77
2021/03/31 03:09:20;;;;;;;10.07;6.88;;;10.30;86.90;;;;;;2025161;29;20024;-77
2021/03/31 03:10:20;;;;;;;12.07;7.00;;;10.30;86.80;;;;;;2027011;29;20112;-77
2021/03/31 03:11:23;;;;;;;14.18;7.57;;;10.30;87.10;;;;;;2027185;29;20024;-77
2021/03/31 03:12:24;;;;;;;10.60;7.10;;;10.30;87.30;;;;;;2029280;29;20813;-77
2021/03/31 03:13:25;;;;;;;9.98;6.82;;;10.30;87.50;;;;;;2027970;29;20390;-77
2021/03/31 03:14:28;;;;;;;11.43;6.72;;;10.30;87.40;;;;;;2026845;29;20067;-77
2021/03/31 03:15:30;;;;;;;10.68;7.18;;;10.30;87.80;;;;;;2025806;29;20131;-77
2021/03/31 03:16:31;;;;;;;8.82;5.95;;;10.30;88.00;;;;;;2023940;29;20153;-77
2021/03/31 03:17:31;;;;;;;11.60;6.97;;;10.30;86.50;;;;;;2023642;29;20033;-77
2021/03/31 03:18:33;;;;;;;11.65;6.93;;;10.30;87.40;;;;;;2037920;29;20388;-77
2021/03/31 03:19:34;;;;;;;9.65;6.28;;;10.20;87.40;;;;;;2034936;29;20024;-77
2021/03/31 03:20:35;;;;;;;9.65;6.88;;;10.20;86.90;;;;;;2028238;29;20481;-77
2021/03/31 03:21:37;;;;;;;8.48;6.43;;;10.20;86.80;;;;;;2025358;29;20373;-77
2021/03/31 03:22:40;;;;;;;9.50;6.63;;;10.20;87.40;;;;;;2024542;29;20536;-77
2021/03/31 03:23:42;;;;;;;9.10;6.82;;;10.20;87.30;;;;;;2031130;29;20063;-77
2021/03/31 03:24:45;;;;;;;9.25;6.45;;;10.20;88.10;;;;;;2023855;29;20027;-77
2021/03/31 03:25:48;;;;;;;9.90;6.43;;;10.20;88.30;;;;;;2029300;29;20037;-77
2021/03/31 03:26:49;;;;;;;8.80;6.78;;;10.20;87.60;;;;;;2017152;29;20039;-77
2021/03/31 03:27:51;;;;;;;10.60;7.50;;;10.10;87.70;;;;;;2023382;29;20476;-77
2021/03/31 03:28:53;;;;;;;11.10;7.03;;;10.10;88.10;;;;;;2031952;29;20028;-77
2021/03/31 03:29:54;;;;;;;12.02;6.40;;;10.10;89.30;;;;;;2023286;29;20036;-77
2021/03/31 03:30:57;;;;;;;9.57;6.45;;;10.10;89.00;;;;;;2030454;29;20473;-77
2021/03/31 03:31:59;;;;;;;10.20;6.20;;;10.10;88.60;;;;;;2026113;29;20039;-77
2021/03/31 03:33:00;;;;;;;9.52;7.00;;;10.10;89.90;;;;;;2033888;29;20028;-77
2021/03/31 03:34:07;;;;;;;14.43;7.65;;;10.10;89.00;;;;;;2032835;29;20499;-77
2021/03/31 03:35:14;;;;;;;9.45;6.85;;;10.10;89.00;;;;;;2026310;29;20460;-77
2021/03/31 03:36:16;;;;;;;7.55;6.03;;;10.00;88.10;;;;;;2024148;29;20039;-77
2021/03/31 03:37:18;;;;;;;10.13;6.40;;;10.00;88.60;;;;;;2027495;29;20021;-77
2021/03/31 03:38:22;;;;;;;15.48;7.07;;;10.00;88.90;;;;;;2024097;29;20028;-77
2021/03/31 03:39:23;;;;;;;9.50;6.15;;;10.00;89.30;;;;;;2024070;29;20154;-77
2021/03/31 03:40:26;;;;;;;9.43;6.70;;;10.00;88.60;;;;;;2024320;29;20552;-77
2021/03/31 03:41:27;;;;;;;11.05;7.07;;;10.00;88.90;;;;;;2022131;29;20032;-77
2021/03/31 03:42:27;;;;;;;8.90;6.30;;;10.00;88.80;;;;;;2021205;29;20040;-77
2021/03/31 03:43:28;;;;;;;8.35;6.65;;;10.00;87.70;;;;;;2023457;29;20048;-77
2021/03/31 03:44:30;;;;;;;11.20;7.38;;;10.00;88.40;;;;;;2027930;29;20448;-77
2021/03/31 03:45:33;;;;;;;8.60;5.78;;;9.90;89.10;;;;;;2029170;29;20020;-77
2021/03/31 03:46:35;;;;;;;9.57;6.97;;;9.90;89.40;;;;;;2027855;29;20076;-77
2021/03/31 03:47:38;;;;;;;9.05;6.40;;;9.90;89.70;;;;;;2020934;29;20468;-77
2021/03/31 03:48:41;;;;;;;8.43;6.60;;;9.90;89.70;;;;;;2024037;29;20103;-77
2021/03/31 03:49:42;;;;;;;12.63;6.68;;;9.90;89.50;;;;;;2022351;29;20039;-77
2021/03/31 03:50:42;;;;;;;10.60;5.55;;;9.90;90.10;;;;;;2025164;29;20039;-77
2021/03/31 03:51:45;;;;;;;8.52;6.28;;;9.90;88.50;;;;;;2023920;29;20481;-77
2021/03/31 03:52:49;;;;;;;9.48;5.95;;;9.90;89.50;;;;;;2017922;29;20025;-77
2021/03/31 03:53:49;;;;;;;10.52;6.43;;;9.90;89.60;;;;;;2022545;29;20464;-77
2021/03/31 03:54:54;;;;;;;10.50;6.68;;;9.90;89.50;;;;;;2034023;29;20383;-77
2021/03/31 03:55:56;;;;;;;11.88;6.53;;;9.90;89.60;;;;;;2032474;29;20049;-77
2021/03/31 03:56:57;;;;;;;8.43;6.07;;;9.80;90.10;;;;;;2030077;29;20085;-77
2021/03/31 03:58:07;;;;;;;11.13;6.38;;;9.80;90.00;;;;;;2030340;29;20153;-77
2021/03/31 03:59:23;;;;;;;12.50;6.47;;;9.80;90.80;;;;;;2027138;29;20669;-78
2021/03/31 04:00:24;;;;;;;10.90;6.88;;;9.80;90.90;;;;;;2026643;29;20100;-77
2021/03/31 04:01:25;;;;;;;10.60;7.03;;;9.70;90.50;;;;;;2029389;29;20032;-77
2021/03/31 04:02:26;;;;;;;9.60;6.30;;;9.70;90.70;;;;;;2024056;29;20036;-77
2021/03/31 04:03:26;;;;;;;7.88;5.93;;;9.70;90.90;;;;;;2024579;29;20582;-77
2021/03/31 04:04:27;;;;;;;12.38;6.57;;;9.70;91.00;;;;;;2036679;29;20083;-77
2021/03/31 04:05:27;;;;;;;9.27;5.95;;;9.70;91.20;;;;;;2030184;29;20035;-77
2021/03/31 04:06:28;;;;;;;9.02;6.47;;;9.70;91.40;;;;;;2027640;29;20118;-77
2021/03/31 04:07:29;;;;;;;9.57;6.28;;;9.60;91.20;;;;;;2034490;29;20075;-77
2021/03/31 04:08:29;;;;;;;10.68;5.95;;;9.60;91.20;;;;;;2033972;29;20024;-77
2021/03/31 04:09:30;;;;;;;8.57;6.57;;;9.60;91.40;;;;;;2037432;29;20033;-77
2021/03/31 04:10:31;;;;;;;10.45;6.38;;;9.60;91.40;;;;;;2026004;29;20461;-77
2021/03/31 04:11:33;;;;;;;9.30;6.35;;;9.60;91.40;;;;;;2025195;29;20114;-77
2021/03/31 04:12:36;;;;;;;7.00;5.70;;;9.60;91.50;;;;;;2029198;29;20516;-77
2021/03/31 04:13:37;;;;;;;10.20;5.82;;;9.60;91.60;;;;;;2026121;29;20396;-77
2021/03/31 04:14:40;;;;;;;10.63;6.50;;;9.60;91.50;;;;;;2027874;29;20025;-77
2021/03/31 04:15:45;;;;;;;9.70;6.00;;;9.60;91.20;;;;;;2017692;29;20116;-77
2021/03/31 04:16:48;;;;;;;7.53;5.68;;;9.60;91.40;;;;;;2027769;29;20029;-77
2021/03/31 04:17:50;;;;;;;6.80;4.97;;;9.60;91.40;;;;;;2029586;29;20134;-77
2021/03/31 04:18:52;;;;;;;9.02;5.95;;;9.60;90.70;;;;;;2038006;29;20054;-77
2021/03/31 04:19:53;;;;;;;9.75;6.28;;;9.60;90.90;;;;;;2034969;29;20051;-77
2021/03/31 04:20:56;;;;;;;9.38;6.40;;;9.60;91.10;;;;;;2035699;29;20017;-77
2021/03/31 04:21:57;;;;;;;9.73;6.57;;;9.60;91.30;;;;;;2018972;29;20040;-79
2021/03/31 04:22:58;;;;;;;9.43;5.93;;;9.60;91.10;;;;;;2022692;29;20526;-77
2021/03/31 04:23:59;;;;;;;7.85;5.70;;;9.50;91.00;;;;;;2031475;29;20172;-77
2021/03/31 04:25:00;;;;;;;9.88;6.22;;;9.50;91.60;;;;;;2028353;29;20091;-77
2021/03/31 04:26:00;;;;;;;7.75;5.75;;;9.50;91.00;;;;;;2026631;29;20092;-77
2021/03/31 04:27:03;;;;;;;9.65;6.07;;;9.50;91.30;;;;;;2018354;29;20120;-77
2021/03/31 04:28:07;;;;;;;7.97;5.35;;;9.50;91.60;;;;;;2026013;29;20040;-77
2021/03/31 04:29:10;;;;;;;11.40;6.32;;;9.50;91.60;;;;;;2027628;29;20042;-78
2021/03/31 04:30:13;;;;;;;7.88;5.75;;;9.50;91.10;;;;;;2033977;29;20106;-77
2021/03/31 04:31:14;;;;;;;9.35;5.63;;;9.50;91.40;;;;;;2027435;29;20016;-77
2021/03/31 04:32:17;;;;;;;9.70;6.95;;;9.50;91.40;;;;;;2025035;29;20024;-77
2021/03/31 04:33:18;;;;;;;10.30;5.95;;;9.50;91.70;;;;;;2022779;29;20036;-77
2021/03/31 04:34:20;;;;;;;8.52;6.10;;;9.50;91.70;;;;;;2029532;29;20087;-77
2021/03/31 04:35:22;;;;;;;8.63;5.85;;;9.50;91.70;;;;;;2029056;29;20055;-77
2021/03/31 04:36:23;;;;;;;7.10;5.72;;;9.50;91.80;;;;;;2028848;29;20016;-77
2021/03/31 04:37:23;;;;;;;7.93;5.63;;;9.50;92.00;;;;;;2032179;29;20136;-77
2021/03/31 04:38:24;;;;;;;9.20;6.22;;;9.40;91.50;;;;;;2034697;29;20491;-77
2021/03/31 04:39:24;;;;;;;7.93;5.47;;;9.40;91.50;;;;;;2019854;29;20033;-77
2021/03/31 04:40:25;;;;;;;9.10;5.70;;;9.40;91.50;;;;;;2022194;29;20131;-77
2021/03/31 04:41:25;;;;;;;8.57;5.70;;;9.40;92.00;;;;;;2029142;29;20102;-77
2021/03/31 04:42:26;;;;;;;6.47;5.22;;;9.40;92.10;;;;;;2026194;29;20092;-77
2021/03/31 04:43:32;;;;;;;7.93;5.47;;;9.40;92.30;;;;;;2027594;29;20031;-77
2021/03/31 04:44:33;;;;;;;9.60;5.43;;;9.40;91.90;;;;;;2025265;29;20031;-77
2021/03/31 04:45:33;;;;;;;9.38;5.20;;;9.40;90.90;;;;;;2031277;29;20087;-77
2021/03/31 04:46:34;;;;;;;8.68;5.47;;;9.40;91.10;;;;;;2037292;29;20331;-77
2021/03/31 04:47:35;;;;;;;9.80;6.30;;;9.40;90.80;;;;;;2025239;29;20158;-77
2021/03/31 04:48:40;;;;;;;10.10;6.20;;;9.40;90.10;;;;;;2026658;29;20056;-77
2021/03/31 04:49:41;;;;;;;9.13;5.43;;;9.40;90.80;;;;;;2037098;29;20031;-77
2021/03/31 04:50:42;;;;;;;8.48;5.65;;;9.40;90.40;;;;;;2031421;29;20106;-78
2021/03/31 04:51:43;;;;;;;11.63;5.70;;;9.40;91.00;;;;;;2030832;29;20179;-77
2021/03/31 04:52:43;;;;;;;9.35;5.75;;;9.40;91.00;;;;;;2023575;29;20049;-77
2021/03/31 04:53:44;;;;;;;8.43;6.00;;;9.40;91.10;;;;;;2036379;29;20525;-77
2021/03/31 04:54:44;;;;;;;7.55;5.93;;;9.40;90.90;;;;;;2035851;29;20460;-77
2021/03/31 04:55:45;;;;;;;8.13;6.00;;;9.40;91.40;;;;;;2025269;29;20474;-77
2021/03/31 04:56:46;;;;;;;9.43;6.00;;;9.40;91.40;;;;;;2035611;29;20027;-77
2021/03/31 04:57:46;;;;;;;9.43;5.88;;;9.40;91.60;;;;;;2032242;29;20111;-77
2021/03/31 04:58:47;;;;;;;8.13;6.30;;;9.40;91.90;;;;;;2026254;29;20111;-77
2021/03/31 04:59:47;;;;;;;13.82;6.13;;;9.40;91.80;;;;;;2024374;29;20029;-77
2021/03/31 05:00:48;;;;;;;8.80;5.35;;;9.40;91.80;;;;;;2021403;29;20400;-77
2021/03/31 05:01:49;;;;;;;8.20;5.50;;;9.40;91.40;;;;;;2035200;29;20028;-77
2021/03/31 05:02:50;;;;;;;10.35;5.45;;;9.40;91.70;;;;;;2039660;29;20027;-77
2021/03/31 05:03:50;;;;;;;8.68;5.38;;;9.40;91.70;;;;;;2018590;29;20029;-77
2021/03/31 05:04:51;;;;;;;8.63;5.32;;;9.40;91.70;;;;;;2012056;29;20029;-77
2021/03/31 05:05:51;;;;;;;8.80;6.07;;;9.40;91.40;;;;;;2017555;29;20029;-77
2021/03/31 05:06:52;;;;;;;11.13;5.55;;;9.40;92.00;;;;;;2026468;29;20640;-77
2021/03/31 05:07:52;;;;;;;8.52;5.85;;;9.40;92.30;;;;;;2033277;29;20468;-77
2021/03/31 05:08:53;;;;;;;12.48;5.88;;;9.40;92.10;;;;;;2025960;29;20111;-77
2021/03/31 05:09:54;;;;;;;10.95;5.85;;;9.40;92.10;;;;;;2036706;29;20533;-77
2021/03/31 05:10:54;;;;;;;10.00;5.85;;;9.40;92.00;;;;;;2040026;29;20034;-77
2021/03/31 05:11:55;;;;;;;8.38;5.78;;;9.40;92.50;;;;;;2026031;29;20036;-77
2021/03/31 05:12:55;;;;;;;12.25;7.20;;;9.40;92.60;;;;;;2026923;29;20039;-77
2021/03/31 05:13:56;;;;;;;9.27;5.47;;;9.30;92.60;;;;;;2025020;29;20501;-77
2021/03/31 05:14:56;;;;;;;10.02;5.93;;;9.30;93.00;;;;;;2025525;29;20029;-77
2021/03/31 05:15:57;;;;;;;10.60;5.93;;;9.30;92.80;;;;;;2026037;29;20024;-77
2021/03/31 05:16:57;;;;;;;8.07;5.68;;;9.30;92.70;;;;;;2024410;29;20482;-77
2021/03/31 05:17:58;;;;;;;12.10;6.07;;;9.30;92.90;;;;;;2025297;29;20039;-77
2021/03/31 05:18:58;;;;;;;10.95;6.00;;;9.30;92.80;;;;;;2018082;29;20029;-77
2021/03/31 05:19:59;;;;;;;12.43;6.57;;;9.30;92.60;;;;;;2025264;29;20536;-77
2021/03/31 05:21:00;;;;;;;9.05;5.72;;;9.30;92.60;;;;;;2026166;29;20017;-77
2021/03/31 05:22:01;;;;;;;12.52;6.18;;;9.30;93.10;;;;;;2025454;29;20453;-77
2021/03/31 05:23:01;;;;;;;9.70;5.55;;;9.30;92.80;;;;;;2033134;29;20035;-77
2021/03/31 05:24:02;;;;;;;9.10;6.28;;;9.30;92.90;;;;;;2033900;29;20063;-77
2021/03/31 05:25:04;;;;;;;12.40;6.45;;;9.30;93.00;;;;;;2024295;29;20469;-77
2021/03/31 05:26:04;;;;;;;13.60;6.18;;;9.30;93.40;;;;;;2025039;29;20028;-77
2021/03/31 05:27:05;;;;;;;8.30;5.97;;;9.30;93.20;;;;;;2024604;29;20037;-77